Meath Environmental Platform

Observations for Trim Patrick St

Time AQI Temp °C Hum % Pres Pa CO μg/m³ H₂S μg/m³ NO μg/m³ NO₂ μg/m³ O₃ μg/m³ SO₂ μg/m³ PM1 μg/m³ PM2.5 μg/m³ PM10 μg/m³
Sunday 2 August 2026
05:45 2 13 77 38,460 0.33 3.75 2.12 27.73 20.76 0 8.86 14.59 16.05
05:44 2 13 77 38,460 0.32 2.53 2.16 26.95 20.48 0 8 12.45 13.69
05:43 2 13 78 38,460 0.32 0.56 2.25 19.2 20.46 0 7.14 13.14 14.46
05:42 2 13 78 38,460 0.32 0.43 2.24 18.46 21.99 0 5.43 11.03 12.13
05:41 2 13 78 38,460 0.32 0.72 2.11 18.82 22.45 0 7.14 13.14 14.46
05:40 2 13 78 38,460 0.32 2.17 2.28 21.46 22.17 0 7.14 11.73 12.91
05:39 2 13 77 38,460 0.31 2.87 2.27 27.79 20.34 0 7.14 12.45 13.69
05:37 2 13 77 38,460 0.32 1.78 2.82 22.08 19.54 0 6.29 11.74 12.91
05:33 2 13 78 38,460 0.32 1.11 2.58 19.62 21.19 0 7.14 11.02 12.12
05:32 2 13 78 38,460 0.32 1.26 2.14 23.37 18.7 0 5.43 10.31 11.34
05:31 2 13 78 38,460 0.31 1.05 2.17 21.13 20.3 0 8 13.84 15.22
05:30 2 13 78 38,460 0.31 0 2.14 15.93 22.73 0 7.14 11.72 12.9
05:28 2 13 78 38,460 0.32 3.64 2.08 23.37 21.19 0 5.43 10.31 11.34
05:27 2 13 78 38,460 0.32 4.65 2.43 26.99 22.82 0 8 11.72 12.9
05:26 2 13 78 38,460 0.31 3.9 2.29 29.56 20.19 0 7.14 13.14 14.46
05:25 2 13 78 38,460 0.31 1.62 2.29 24.48 21.76 0 5.43 11.03 12.13
05:24 2 13 78 38,460 0.32 1.6 2.42 21.82 22.75 0 8 13.13 14.45
05:23 2 13.1 78 38,460 0.31 1.96 2.38 23.32 23.13 0 5.43 11.02 12.12
05:22 2 13 78 38,460 0.31 1.88 2.23 23.08 21.83 0 8 12.43 13.67
05:21 2 13.1 78 38,460 0.3 1.75 2.19 23.61 23.44 0 6.29 10.31 11.34